createdAt,value
2023-03-18T00:00:19.280Z,8.00
2023-03-18T00:02:48.982Z,8.00
2023-03-18T00:05:19.765Z,8.00
2023-03-18T00:07:48.510Z,8.00
2023-03-18T00:10:16.788Z,8.00
2023-03-18T00:12:47.586Z,8.00
2023-03-18T00:15:16.208Z,8.00
2023-03-18T00:17:44.511Z,8.00
2023-03-18T00:20:13.179Z,8.00
2023-03-18T00:22:43.502Z,7.90
2023-03-18T00:25:13.803Z,7.90
2023-03-18T00:27:42.081Z,7.90
2023-03-18T00:30:12.349Z,7.90
2023-03-18T00:32:42.485Z,7.80
2023-03-18T00:35:10.908Z,7.90
2023-03-18T00:37:40.091Z,8.00
2023-03-18T00:40:17.101Z,8.10
2023-03-18T00:42:50.723Z,8.30
2023-03-18T00:45:18.856Z,8.50
2023-03-18T00:47:48.481Z,8.70
2023-03-18T00:50:17.406Z,8.60
2023-03-18T00:52:46.010Z,8.50
2023-03-18T00:55:15.659Z,8.40
2023-03-18T00:57:44.005Z,8.30
2023-03-18T01:00:13.055Z,8.10
2023-03-18T01:02:41.754Z,8.00
2023-03-18T01:05:10.685Z,8.00
2023-03-18T01:07:38.964Z,8.10
2023-03-18T01:10:08.485Z,8.20
2023-03-18T01:12:39.637Z,8.30
2023-03-18T01:15:09.652Z,8.40
2023-03-18T01:17:38.371Z,8.40
2023-03-18T01:20:06.998Z,8.20
2023-03-18T01:22:35.976Z,8.20
2023-03-18T01:25:04.684Z,8.20
2023-03-18T01:27:39.145Z,8.20
2023-03-18T01:30:09.718Z,8.10
2023-03-18T01:32:38.967Z,8.00
2023-03-18T01:35:07.827Z,7.90
2023-03-18T01:37:36.713Z,7.80
2023-03-18T01:40:13.755Z,7.80
2023-03-18T01:42:45.406Z,7.80
2023-03-18T01:45:18.296Z,7.80
2023-03-18T01:47:47.961Z,7.90
2023-03-18T01:50:19.983Z,7.90
2023-03-18T01:52:49.079Z,7.80
2023-03-18T01:55:20.329Z,7.70
2023-03-18T01:57:51.544Z,7.80
2023-03-18T02:00:26.551Z,7.70
2023-03-18T02:02:55.351Z,7.70
2023-03-18T02:05:29.035Z,7.70
2023-03-18T02:07:57.360Z,7.70
2023-03-18T02:10:26.988Z,7.50
2023-03-18T02:13:00.407Z,7.60
2023-03-18T02:15:35.660Z,7.70
2023-03-18T02:18:06.391Z,7.80
2023-03-18T02:20:49.842Z,7.80
2023-03-18T02:23:27.039Z,7.90
2023-03-18T02:25:57.335Z,7.80
2023-03-18T02:28:27.867Z,7.70
2023-03-18T02:30:58.372Z,7.80
2023-03-18T02:33:29.356Z,7.90
2023-03-18T02:35:59.725Z,7.90
2023-03-18T02:38:27.954Z,7.80
2023-03-18T02:40:57.332Z,7.70
2023-03-18T02:43:42.538Z,7.70
2023-03-18T02:46:26.889Z,7.50
2023-03-18T02:48:55.990Z,7.40
2023-03-18T02:51:24.803Z,7.30
2023-03-18T02:53:53.585Z,7.40
2023-03-18T02:56:22.222Z,7.60
2023-03-18T02:58:52.268Z,7.60
2023-03-18T03:01:22.261Z,7.50
2023-03-18T03:03:50.498Z,7.50
2023-03-18T03:06:19.120Z,7.50
2023-03-18T03:08:47.744Z,7.50
2023-03-18T03:11:17.641Z,7.50
2023-03-18T03:13:46.935Z,7.50
2023-03-18T03:16:18.596Z,7.50
2023-03-18T03:18:46.701Z,7.50
2023-03-18T03:21:15.468Z,7.60
2023-03-18T03:23:44.603Z,7.60
2023-03-18T03:26:15.431Z,7.60
2023-03-18T03:28:44.366Z,7.90
2023-03-18T03:31:12.733Z,7.70
2023-03-18T03:33:43.681Z,7.70
2023-03-18T03:36:12.800Z,7.70
2023-03-18T03:38:42.346Z,7.70
2023-03-18T03:41:11.680Z,7.70
2023-03-18T03:43:40.351Z,7.70
2023-03-18T03:46:09.341Z,7.80
2023-03-18T03:48:39.453Z,7.80
2023-03-18T03:51:14.728Z,7.80
2023-03-18T03:53:43.823Z,7.90
2023-03-18T03:56:13.018Z,7.90
2023-03-18T03:59:06.264Z,7.90
2023-03-18T04:01:57.057Z,7.90
2023-03-18T04:04:25.976Z,7.90
2023-03-18T04:06:56.056Z,8.00
2023-03-18T04:09:25.698Z,8.00
2023-03-18T04:11:53.911Z,7.90
2023-03-18T04:14:23.478Z,8.00
2023-03-18T04:16:51.680Z,8.00
2023-03-18T04:19:20.282Z,8.00
2023-03-18T04:21:48.543Z,8.00
2023-03-18T04:24:19.266Z,8.00
2023-03-18T04:26:47.353Z,8.00
2023-03-18T04:29:15.839Z,8.00
2023-03-18T04:31:44.837Z,7.90
2023-03-18T04:34:35.709Z,7.90
2023-03-18T04:37:04.047Z,7.80
2023-03-18T04:39:37.744Z,7.80
2023-03-18T04:42:16.513Z,7.80
2023-03-18T04:44:45.334Z,7.80
2023-03-18T04:47:14.601Z,7.80
2023-03-18T04:49:44.172Z,7.80
2023-03-18T04:52:13.833Z,7.80
2023-03-18T04:54:44.663Z,7.80
2023-03-18T04:57:13.145Z,7.80
2023-03-18T04:59:49.648Z,7.90
2023-03-18T05:02:17.773Z,7.90
2023-03-18T05:04:45.964Z,7.90
2023-03-18T05:07:15.871Z,7.80
2023-03-18T05:09:54.348Z,7.80
2023-03-18T05:12:23.748Z,7.80
2023-03-18T05:14:52.240Z,7.80
2023-03-18T05:17:20.787Z,7.80
2023-03-18T05:19:57.229Z,7.80
2023-03-18T05:22:26.775Z,7.90
2023-03-18T05:25:05.043Z,7.80
2023-03-18T05:27:34.491Z,7.80
2023-03-18T05:30:07.617Z,7.80
2023-03-18T05:32:41.714Z,7.70
2023-03-18T05:35:11.787Z,7.70
2023-03-18T05:37:48.460Z,7.70
2023-03-18T05:40:18.883Z,7.70
2023-03-18T05:43:04.920Z,7.70
2023-03-18T05:45:40.443Z,7.60
2023-03-18T05:48:11.665Z,7.60
2023-03-18T05:50:48.808Z,7.50
2023-03-18T05:53:21.263Z,7.60
2023-03-18T05:55:56.241Z,7.60
2023-03-18T05:58:25.721Z,7.60
2023-03-18T06:01:04.857Z,7.60
2023-03-18T06:03:34.611Z,7.60
2023-03-18T06:06:02.987Z,7.70
2023-03-18T06:08:31.815Z,7.70
2023-03-18T06:11:02.112Z,7.70
2023-03-18T06:13:31.110Z,7.60
2023-03-18T06:15:59.584Z,7.60
2023-03-18T06:18:30.721Z,7.50
2023-03-18T06:20:58.973Z,7.50
2023-03-18T06:23:28.414Z,7.50
2023-03-18T06:25:56.882Z,7.50
2023-03-18T06:28:33.974Z,7.50
2023-03-18T06:31:08.475Z,7.50
2023-03-18T06:33:38.215Z,7.50
2023-03-18T06:36:10.641Z,7.50
2023-03-18T06:38:46.218Z,7.50
2023-03-18T06:41:16.238Z,7.50
2023-03-18T06:44:04.596Z,7.50
2023-03-18T06:46:32.762Z,7.40
2023-03-18T06:49:04.130Z,7.50
2023-03-18T06:51:36.817Z,7.50
2023-03-18T06:54:06.217Z,7.60
2023-03-18T06:56:37.604Z,7.70
2023-03-18T06:59:16.741Z,7.80
2023-03-18T07:01:45.383Z,7.90
2023-03-18T07:04:17.081Z,8.00
2023-03-18T07:06:45.443Z,8.10
2023-03-18T07:09:15.197Z,8.10
2023-03-18T07:11:46.283Z,8.10
2023-03-18T07:14:22.403Z,8.20
2023-03-18T07:16:51.942Z,8.20
2023-03-18T07:19:20.418Z,8.30
2023-03-18T07:21:49.784Z,8.40
2023-03-18T07:24:21.087Z,8.60
2023-03-18T07:26:50.664Z,8.70
2023-03-18T07:29:19.692Z,8.90
2023-03-18T07:31:50.162Z,9.00
2023-03-18T07:34:19.297Z,9.10
2023-03-18T07:36:49.618Z,9.20
2023-03-18T07:39:17.649Z,9.30
2023-03-18T07:41:46.176Z,9.40
2023-03-18T07:44:21.973Z,9.40
2023-03-18T07:46:51.736Z,9.50
2023-03-18T07:49:20.520Z,9.60
2023-03-18T07:51:49.119Z,9.60
2023-03-18T07:54:18.099Z,9.60
2023-03-18T07:56:46.219Z,9.70
2023-03-18T07:59:18.208Z,9.80
2023-03-18T08:01:47.716Z,9.80
2023-03-18T08:04:18.110Z,9.80
2023-03-18T08:06:49.316Z,9.90
2023-03-18T08:09:17.796Z,9.90
2023-03-18T08:11:45.967Z,10.00
2023-03-18T08:14:14.694Z,10.20
2023-03-18T08:16:42.950Z,10.30
2023-03-18T08:19:11.372Z,10.40
2023-03-18T08:21:41.238Z,10.60
2023-03-18T08:24:09.766Z,10.70
2023-03-18T08:26:38.099Z,10.90
2023-03-18T08:29:06.378Z,11.10
2023-03-18T08:31:34.436Z,11.20
2023-03-18T08:34:03.061Z,11.30
2023-03-18T08:36:33.244Z,11.50
2023-03-18T08:39:03.062Z,11.60
2023-03-18T08:41:31.106Z,11.70
2023-03-18T08:43:59.763Z,11.80
2023-03-18T08:46:27.795Z,11.90
2023-03-18T08:48:58.510Z,12.00
2023-03-18T08:51:26.738Z,12.20
2023-03-18T08:53:56.813Z,12.30
2023-03-18T08:56:26.466Z,12.40
2023-03-18T08:58:55.074Z,12.40
2023-03-18T09:01:24.383Z,12.50
2023-03-18T09:03:52.855Z,12.60
2023-03-18T09:06:21.649Z,12.80
2023-03-18T09:08:50.275Z,12.90
2023-03-18T09:11:19.042Z,13.00
2023-03-18T09:13:48.688Z,13.10
2023-03-18T09:16:17.552Z,13.20
2023-03-18T09:18:48.352Z,13.30
2023-03-18T09:21:17.755Z,13.30
2023-03-18T09:23:45.960Z,13.40
2023-03-18T09:26:15.071Z,13.50
2023-03-18T09:28:43.197Z,13.60
2023-03-18T09:31:15.891Z,13.60
2023-03-18T09:33:44.583Z,13.70
2023-03-18T09:36:14.136Z,13.70
2023-03-18T09:38:42.537Z,13.80
2023-03-18T09:41:19.632Z,13.90
2023-03-18T09:43:54.652Z,14.00
2023-03-18T09:46:28.943Z,14.10
2023-03-18T09:49:06.018Z,14.30
2023-03-18T09:51:40.525Z,14.50
2023-03-18T09:54:12.167Z,14.70
2023-03-18T09:56:43.956Z,14.90
2023-03-18T09:59:17.620Z,15.00
2023-03-18T10:01:48.582Z,15.20
2023-03-18T10:04:18.730Z,15.40
2023-03-18T10:06:48.595Z,15.60
2023-03-18T10:09:20.820Z,15.80
2023-03-18T10:11:50.198Z,15.90
2023-03-18T10:14:25.661Z,16.10
2023-03-18T10:17:01.207Z,16.20
2023-03-18T10:19:29.568Z,16.40
2023-03-18T10:22:03.763Z,16.20
2023-03-18T10:24:36.141Z,16.70
2023-03-18T10:27:10.823Z,16.80
2023-03-18T10:29:41.892Z,16.90
2023-03-18T10:32:18.117Z,16.90
2023-03-18T10:34:52.721Z,17.00
2023-03-18T10:37:28.774Z,17.20
2023-03-18T10:39:59.269Z,17.50
2023-03-18T10:42:29.175Z,17.80
2023-03-18T10:45:03.490Z,18.20
2023-03-18T10:47:37.359Z,18.80
2023-03-18T10:50:11.019Z,19.20
2023-03-18T10:52:41.489Z,19.30
2023-03-18T10:55:14.530Z,19.30
2023-03-18T10:57:43.162Z,19.30
2023-03-18T11:00:18.784Z,19.30
2023-03-18T11:02:49.074Z,19.50
2023-03-18T11:05:23.341Z,19.60
2023-03-18T11:08:02.012Z,19.70
2023-03-18T11:10:34.364Z,19.80
2023-03-18T11:13:03.667Z,19.90
2023-03-18T11:15:37.185Z,20.00
2023-03-18T11:18:07.032Z,19.90
2023-03-18T11:20:43.077Z,19.90
2023-03-18T11:23:20.005Z,20.00
2023-03-18T11:25:48.843Z,20.00
2023-03-18T11:28:21.881Z,19.80
2023-03-18T11:30:52.834Z,20.00
2023-03-18T11:33:25.045Z,20.20
2023-03-18T11:35:54.229Z,20.30
2023-03-18T11:38:27.511Z,20.50
2023-03-18T11:41:06.375Z,20.50
2023-03-18T11:43:35.099Z,20.70
2023-03-18T11:46:05.181Z,20.70
2023-03-18T11:48:37.670Z,20.80
2023-03-18T11:51:26.872Z,20.90
2023-03-18T11:54:02.949Z,20.80
2023-03-18T11:56:32.720Z,20.80
2023-03-18T11:59:09.646Z,20.90
2023-03-18T12:01:44.514Z,21.20
2023-03-18T12:04:22.190Z,21.40
2023-03-18T12:06:57.180Z,21.60
2023-03-18T12:09:29.273Z,21.80
2023-03-18T12:12:01.958Z,21.90
2023-03-18T12:14:34.913Z,21.90
2023-03-18T12:17:11.724Z,22.00
2023-03-18T12:19:59.093Z,22.00
2023-03-18T12:22:32.595Z,22.10
2023-03-18T12:25:09.121Z,22.10
2023-03-18T12:27:41.656Z,22.10
2023-03-18T12:30:25.400Z,22.20
2023-03-18T12:32:58.558Z,22.20
2023-03-18T12:35:38.573Z,21.90
2023-03-18T12:38:15.038Z,21.70
2023-03-18T12:40:48.884Z,21.80
2023-03-18T12:43:37.536Z,21.90
2023-03-18T12:46:11.809Z,22.10
2023-03-18T12:48:44.929Z,22.30
2023-03-18T12:51:16.506Z,22.40
2023-03-18T12:53:46.354Z,22.60
2023-03-18T12:56:17.134Z,22.90
2023-03-18T12:58:47.171Z,23.20
2023-03-18T13:01:18.383Z,23.40
2023-03-18T13:03:48.422Z,23.80
2023-03-18T13:06:21.622Z,24.10
2023-03-18T13:08:52.700Z,24.60
2023-03-18T13:11:34.790Z,24.30
2023-03-18T13:14:06.237Z,23.30
2023-03-18T13:16:36.343Z,23.90
2023-03-18T13:19:04.860Z,24.60
2023-03-18T13:21:36.467Z,25.60
2023-03-18T13:24:29.242Z,26.70
2023-03-18T13:27:06.149Z,27.70
2023-03-18T13:29:37.999Z,28.80
2023-03-18T13:32:18.123Z,29.30
2023-03-18T13:34:56.980Z,30.00
2023-03-18T13:37:44.904Z,30.30
2023-03-18T13:40:30.565Z,30.90
2023-03-18T13:43:01.246Z,31.40
2023-03-18T13:45:31.199Z,32.10
2023-03-18T13:48:01.491Z,32.70
2023-03-18T13:50:34.599Z,33.10
2023-03-18T13:56:05.879Z,34.50
2023-03-18T13:58:35.620Z,35.20
2023-03-18T14:01:18.866Z,35.90
2023-03-18T14:03:57.731Z,36.20
2023-03-18T14:06:40.210Z,36.40
2023-03-18T14:09:23.578Z,36.00
2023-03-18T14:11:54.469Z,36.00
2023-03-18T14:14:56.947Z,36.20
2023-03-18T14:17:33.851Z,36.70
2023-03-18T14:20:19.216Z,37.30
2023-03-18T14:22:48.874Z,37.80
2023-03-18T14:25:23.139Z,37.70
2023-03-18T14:27:55.177Z,37.20
2023-03-18T14:30:47.279Z,36.30
2023-03-18T14:33:36.694Z,35.00
2023-03-18T14:36:10.389Z,33.40
2023-03-18T14:38:47.937Z,31.70
2023-03-18T14:41:18.732Z,30.50
2023-03-18T14:43:54.100Z,29.80
2023-03-18T14:46:24.308Z,29.10
2023-03-18T14:48:53.973Z,28.20
2023-03-18T14:51:24.696Z,27.50
2023-03-18T14:53:54.565Z,26.80
2023-03-18T14:56:26.697Z,26.20
2023-03-18T14:58:58.505Z,25.60
2023-03-18T15:01:34.343Z,25.10
2023-03-18T15:04:05.979Z,24.80
2023-03-18T15:06:36.269Z,24.40
2023-03-18T15:09:07.062Z,24.00
2023-03-18T15:11:39.637Z,23.60
2023-03-18T15:14:14.280Z,23.20
2023-03-18T15:16:43.404Z,22.90
2023-03-18T15:19:13.205Z,22.70
2023-03-18T15:21:41.969Z,22.40
2023-03-18T15:24:12.819Z,22.30
2023-03-18T15:26:41.578Z,22.10
2023-03-18T15:29:25.385Z,21.90
2023-03-18T15:31:53.964Z,21.60
2023-03-18T15:34:23.943Z,21.30
2023-03-18T15:36:54.020Z,21.10
2023-03-18T15:39:24.897Z,21.00
2023-03-18T15:41:53.928Z,20.80
2023-03-18T15:44:26.217Z,20.60
2023-03-18T15:46:55.952Z,20.50
2023-03-18T15:49:28.679Z,20.40
2023-03-18T15:52:00.656Z,20.30
2023-03-18T15:54:30.110Z,20.10
2023-03-18T15:56:58.933Z,20.00
2023-03-18T15:59:29.424Z,19.80
2023-03-18T16:02:07.728Z,19.60
2023-03-18T16:04:38.038Z,19.50
2023-03-18T16:07:10.239Z,19.40
2023-03-18T16:09:38.378Z,19.20
2023-03-18T16:12:13.830Z,19.10
2023-03-18T16:14:47.808Z,19.00
2023-03-18T16:17:16.794Z,18.90
2023-03-18T16:19:46.274Z,18.80
2023-03-18T16:22:15.988Z,18.80
2023-03-18T16:24:44.339Z,18.70
2023-03-18T16:27:22.316Z,18.70
2023-03-18T16:29:55.599Z,18.60
2023-03-18T16:32:24.895Z,18.50
2023-03-18T16:34:53.119Z,18.50
2023-03-18T16:37:22.809Z,18.40
2023-03-18T16:39:52.100Z,18.30
2023-03-18T16:42:20.555Z,18.30
2023-03-18T16:44:48.754Z,18.30
2023-03-18T16:47:21.664Z,18.20
2023-03-18T16:49:50.587Z,18.20
2023-03-18T16:52:19.503Z,18.20
2023-03-18T16:54:47.644Z,18.10
2023-03-18T16:57:17.306Z,18.10
2023-03-18T16:59:47.943Z,18.00
2023-03-18T17:02:26.696Z,17.90
2023-03-18T17:04:54.785Z,17.90
2023-03-18T17:07:25.451Z,17.90
2023-03-18T17:09:53.491Z,17.80
2023-03-18T17:12:22.553Z,17.80
2023-03-18T17:14:53.243Z,17.70
2023-03-18T17:17:28.433Z,17.70
2023-03-18T17:19:57.076Z,17.70
2023-03-18T17:22:26.945Z,17.70
2023-03-18T17:24:55.395Z,17.60
2023-03-18T17:27:25.757Z,17.60
2023-03-18T17:29:53.918Z,17.60
2023-03-18T17:32:22.540Z,17.50
2023-03-18T17:34:53.063Z,17.50
2023-03-18T17:37:23.690Z,17.50
2023-03-18T17:39:51.976Z,17.50
2023-03-18T17:42:28.853Z,17.50
2023-03-18T17:44:57.612Z,17.50
2023-03-18T17:47:26.577Z,17.50
2023-03-18T17:49:56.107Z,17.50
2023-03-18T17:52:26.676Z,17.50
2023-03-18T17:54:55.080Z,17.50
2023-03-18T17:57:23.342Z,17.50
2023-03-18T17:59:54.349Z,17.50
2023-03-18T18:02:22.413Z,17.40
2023-03-18T18:04:51.595Z,17.40
2023-03-18T18:07:21.747Z,17.30
2023-03-18T18:09:50.242Z,17.20
2023-03-18T18:12:21.448Z,17.20
2023-03-18T18:14:50.481Z,17.20
2023-03-18T18:17:19.169Z,17.20
2023-03-18T18:19:49.026Z,17.10
2023-03-18T18:22:18.981Z,17.10
2023-03-18T18:24:49.001Z,17.00
2023-03-18T18:27:17.134Z,17.00
2023-03-18T18:32:56.168Z,16.80
2023-03-18T18:35:25.655Z,16.70
2023-03-18T18:37:54.138Z,16.70
2023-03-18T18:40:23.980Z,16.70
2023-03-18T18:42:52.083Z,16.70
2023-03-18T18:45:21.188Z,16.60
2023-03-18T18:50:40.054Z,16.50
2023-03-18T18:53:16.092Z,16.50
2023-03-18T18:55:46.463Z,16.50
2023-03-18T18:58:17.866Z,16.40
2023-03-18T19:00:46.540Z,16.40
2023-03-18T19:03:15.609Z,16.40
2023-03-18T19:05:44.408Z,16.30
2023-03-18T19:08:20.353Z,16.30
2023-03-18T19:10:49.827Z,16.30
2023-03-18T19:13:18.323Z,16.30
2023-03-18T19:15:48.615Z,16.20
2023-03-18T19:18:19.435Z,16.20
2023-03-18T19:20:48.213Z,16.20
2023-03-18T19:23:17.583Z,16.20
2023-03-18T19:25:47.663Z,16.20
2023-03-18T19:28:20.817Z,16.20
2023-03-18T19:30:49.568Z,16.20
2023-03-18T19:33:18.370Z,16.10
2023-03-18T19:35:47.255Z,16.00
2023-03-18T19:38:18.059Z,15.80
2023-03-18T19:40:49.177Z,15.60
2023-03-18T19:43:42.356Z,15.50
2023-03-18T19:46:13.828Z,15.40
2023-03-18T19:48:42.345Z,15.20
2023-03-18T19:51:15.153Z,15.20
2023-03-18T19:53:44.567Z,15.10
2023-03-18T19:56:23.876Z,15.20
2023-03-18T19:58:55.128Z,15.30
2023-03-18T20:01:23.364Z,15.40
2023-03-18T20:03:54.820Z,15.40
2023-03-18T20:06:22.882Z,15.50
2023-03-18T20:08:51.707Z,15.50
2023-03-18T20:11:21.146Z,15.50
2023-03-18T20:13:49.678Z,15.40
2023-03-18T20:16:19.590Z,15.40
2023-03-18T20:18:47.773Z,15.20
2023-03-18T20:21:18.198Z,15.00
2023-03-18T20:23:46.698Z,14.90
2023-03-18T20:26:15.620Z,15.30
2023-03-18T20:28:45.854Z,15.00
2023-03-18T20:31:15.291Z,15.00
2023-03-18T20:33:46.193Z,15.00
2023-03-18T20:36:16.107Z,15.10
2023-03-18T20:38:45.370Z,15.10
2023-03-18T20:41:16.126Z,15.20
2023-03-18T20:43:46.294Z,15.20
2023-03-18T20:46:14.867Z,15.30
2023-03-18T20:48:43.842Z,15.30
2023-03-18T20:51:19.364Z,15.30
2023-03-18T20:53:49.456Z,15.30
2023-03-18T20:56:19.391Z,15.30
2023-03-18T20:58:47.449Z,15.30
2023-03-18T21:01:17.091Z,15.30
2023-03-18T21:03:45.656Z,15.20
2023-03-18T21:06:15.963Z,15.20
2023-03-18T21:08:45.544Z,15.10
2023-03-18T21:11:22.668Z,15.10
2023-03-18T21:13:51.010Z,15.10
2023-03-18T21:16:21.290Z,14.90
2023-03-18T21:18:49.913Z,14.80
2023-03-18T21:21:21.672Z,14.60
2023-03-18T21:23:51.460Z,14.40
2023-03-18T21:26:19.837Z,14.30
2023-03-18T21:28:47.956Z,14.20
2023-03-18T21:31:24.995Z,14.20
2023-03-18T21:33:53.513Z,14.20
2023-03-18T21:36:22.723Z,14.10
2023-03-18T21:38:52.196Z,14.10
2023-03-18T21:41:21.850Z,14.20
2023-03-18T21:43:50.411Z,14.20
2023-03-18T21:46:41.168Z,14.00
2023-03-18T21:49:09.225Z,13.80
2023-03-18T21:51:39.939Z,13.80
2023-03-18T21:54:13.789Z,13.70
2023-03-18T21:56:42.093Z,13.60
2023-03-18T21:59:10.143Z,13.50
2023-03-18T22:01:38.547Z,13.30
2023-03-18T22:04:06.865Z,13.10
2023-03-18T22:06:35.236Z,13.10
2023-03-18T22:09:03.483Z,13.20
2023-03-18T22:11:32.865Z,13.30
2023-03-18T22:14:01.113Z,13.50
2023-03-18T22:16:29.274Z,13.60
2023-03-18T22:18:57.623Z,13.70
2023-03-18T22:21:27.421Z,13.90
2023-03-18T22:23:56.466Z,13.90
2023-03-18T22:26:24.493Z,14.00
2023-03-18T22:28:54.073Z,14.10
2023-03-18T22:31:24.071Z,14.10
2023-03-18T22:33:52.181Z,14.10
2023-03-18T22:36:21.576Z,14.20
2023-03-18T22:38:50.094Z,14.20
2023-03-18T22:41:20.305Z,14.20
2023-03-18T22:43:48.956Z,14.20
2023-03-18T22:46:18.520Z,14.20
2023-03-18T22:48:47.503Z,14.20
2023-03-18T22:51:21.156Z,14.20
2023-03-18T22:53:51.284Z,14.20
2023-03-18T22:56:19.353Z,14.20
2023-03-18T22:58:49.466Z,14.20
2023-03-18T23:01:19.963Z,14.20
2023-03-18T23:03:49.132Z,14.20
2023-03-18T23:06:18.545Z,14.20
2023-03-18T23:08:47.473Z,14.30
2023-03-18T23:11:16.698Z,14.30
2023-03-18T23:13:45.515Z,14.30
2023-03-18T23:16:15.498Z,14.30
2023-03-18T23:18:45.459Z,14.00
2023-03-18T23:21:16.239Z,13.70
2023-03-18T23:23:44.472Z,13.60
2023-03-18T23:26:12.560Z,14.60
2023-03-18T23:28:44.876Z,13.60
2023-03-18T23:31:13.515Z,13.30
2023-03-18T23:33:41.932Z,13.20
2023-03-18T23:36:11.803Z,13.00
2023-03-18T23:38:40.524Z,13.00
2023-03-18T23:41:09.092Z,12.90
2023-03-18T23:43:37.210Z,12.70
2023-03-18T23:46:05.619Z,12.50
2023-03-18T23:48:33.728Z,12.20
2023-03-18T23:51:02.210Z,12.10
2023-03-18T23:53:31.624Z,12.30
2023-03-18T23:55:59.627Z,12.40
2023-03-18T23:58:27.656Z,12.40
